Time;durP1;ratioP1;P1;durP2;ratioP2;P2;SDS_P1;SDS_P2;PMS_P1;PMS_P2;Temp;Humidity;BMP_temperature;BMP_pressure;BME280_temperature;BME280_humidity;BME280_pressure;Samples;Min_cycle;Max_cycle;Signal;HPM_P1;HPM_P2
2022/03/09 00:00:31;;;;;;;46.03;21.50;;;;;;;2.48;85.22;101138.25;5033549;28;20269;-75
2022/03/09 00:02:56;;;;;;;50.30;22.67;;;;;;;2.45;85.03;101130.28;5033501;28;20606;-76
2022/03/09 00:05:22;;;;;;;43.50;22.00;;;;;;;2.39;85.27;101139.59;5033704;28;20175;-76
2022/03/09 00:07:47;;;;;;;46.13;21.77;;;;;;;2.33;85.57;101141.31;5033520;28;20598;-75
2022/03/09 00:10:13;;;;;;;47.17;21.50;;;;;;;2.25;86.01;101140.34;5036006;28;20175;-75
2022/03/09 00:12:38;;;;;;;47.67;23.87;;;;;;;2.26;86.72;101137.09;5036518;28;20678;-75
2022/03/09 00:15:04;;;;;;;45.80;22.97;;;;;;;2.27;86.09;101133.84;5034360;28;20632;-75
2022/03/09 00:17:30;;;;;;;47.70;22.93;;;;;;;2.27;86.03;101129.72;5033989;28;20176;-75
2022/03/09 00:19:55;;;;;;;47.73;22.83;;;;;;;2.22;85.93;101107.06;5033207;28;20270;-77
2022/03/09 00:22:21;;;;;;;43.33;22.13;;;;;;;2.41;85.85;101135.66;5032887;28;20560;-75
2022/03/09 00:24:46;;;;;;;44.07;22.03;;;;;;;2.44;85.94;101131.91;5032863;28;20183;-76
2022/03/09 00:27:12;;;;;;;44.33;23.07;;;;;;;2.38;84.95;101118.44;5033082;28;20187;-75
2022/03/09 00:29:37;;;;;;;42.27;22.23;;;;;;;2.53;84.84;101132.19;5032691;28;20196;-75
2022/03/09 00:32:06;;;;;;;40.83;22.13;;;;;;;2.56;85.25;101130.06;5032724;28;20247;-75
2022/03/09 00:34:32;;;;;;;39.50;21.50;;;;;;;2.54;84.02;101114.66;5031043;28;20269;-76
2022/03/09 00:36:57;;;;;;;43.03;23.10;;;;;;;2.60;83.50;101118.69;5032873;28;20675;-75
2022/03/09 00:39:23;;;;;;;42.07;22.87;;;;;;;2.61;83.48;101123.94;5032487;28;20559;-75
2022/03/09 00:41:48;;;;;;;35.97;18.90;;;;;;;2.57;83.29;101119.22;5032775;28;20199;-77
2022/03/09 00:44:14;;;;;;;39.70;20.17;;;;;;;2.54;83.55;101112.13;5032336;28;20255;-75
2022/03/09 00:46:39;;;;;;;37.23;19.30;;;;;;;2.49;84.80;101109.72;5032747;28;20565;-76
2022/03/09 00:49:05;;;;;;;35.00;19.07;;;;;;;2.48;85.04;101111.34;5032451;28;20171;-75
2022/03/09 00:51:30;;;;;;;40.47;20.93;;;;;;;2.52;85.39;101118.63;5032346;28;20178;-74
2022/03/09 00:53:56;;;;;;;35.07;18.80;;;;;;;2.54;85.39;101116.28;5031659;28;20190;-75
2022/03/09 00:56:21;;;;;;;34.67;18.43;;;;;;;2.51;84.74;101106.69;5032490;28;20183;-75
2022/03/09 00:58:48;;;;;;;40.63;19.60;;;;;;;2.58;84.39;101117.59;5032237;28;20644;-76
2022/03/09 01:01:15;;;;;;;34.17;18.73;;;;;;;2.61;84.38;101120.50;5032106;28;20195;-76
2022/03/09 01:03:41;;;;;;;38.33;19.93;;;;;;;2.35;84.01;101082.66;5032151;28;20172;-75
2022/03/09 01:06:06;;;;;;;38.03;19.93;;;;;;;2.57;84.66;101121.75;5033085;28;20203;-75
2022/03/09 01:08:32;;;;;;;35.97;20.33;;;;;;;2.60;84.38;101118.69;5032359;28;20211;-75
2022/03/09 01:10:57;;;;;;;36.37;20.03;;;;;;;2.58;84.46;101105.84;5032128;28;20632;-75
2022/03/09 01:13:23;;;;;;;39.63;21.70;;;;;;;2.49;84.13;101098.00;5030737;28;20180;-75
2022/03/09 01:15:49;;;;;;;39.53;20.17;;;;;;;2.53;84.60;101110.31;5032207;28;20655;-76
2022/03/09 01:18:15;;;;;;;40.77;20.27;;;;;;;2.55;84.90;101107.97;5032181;28;20203;-76
2022/03/09 01:20:40;;;;;;;45.70;21.80;;;;;;;2.45;85.25;101103.34;5031809;28;20683;-75
2022/03/09 01:23:06;;;;;;;41.07;21.23;;;;;;;2.38;85.76;101102.38;5031764;28;20172;-75
2022/03/09 01:25:32;;;;;;;47.83;23.07;;;;;;;2.34;86.33;101113.72;5032008;28;20605;-76
2022/03/09 01:27:58;;;;;;;41.90;21.23;;;;;;;2.27;87.02;101106.00;5030481;28;20326;-76
2022/03/09 01:30:24;;;;;;;44.53;22.83;;;;;;;2.17;87.52;101085.31;5032032;28;20203;-75
2022/03/09 01:32:49;;;;;;;48.50;23.20;;;;;;;2.12;87.93;101081.25;5031791;28;20171;-77
2022/03/09 01:35:15;;;;;;;47.07;22.07;;;;;;;2.23;88.56;101092.06;5031930;28;20176;-77
2022/03/09 01:37:41;;;;;;;49.07;23.70;;;;;;;2.19;88.22;101087.34;5031629;28;20655;-77
2022/03/09 01:40:07;;;;;;;44.87;23.40;;;;;;;2.15;88.51;101072.50;5031581;28;20183;-76
2022/03/09 01:42:33;;;;;;;47.57;23.37;;;;;;;2.23;88.84;101088.63;5031511;28;20299;-77
2022/03/09 01:45:06;;;;;;;46.13;23.53;;;;;;;2.27;89.17;101086.72;5031822;28;20188;-76
2022/03/09 01:47:32;;;;;;;44.80;23.47;;;;;;;2.29;89.15;101095.41;5031629;28;20466;-75
2022/03/09 01:49:58;;;;;;;43.17;21.70;;;;;;;2.28;89.38;101087.63;5031694;28;20700;-74
2022/03/09 01:52:24;;;;;;;43.43;23.63;;;;;;;2.23;88.63;101088.63;5031608;28;20639;-75
2022/03/09 01:54:52;;;;;;;43.50;21.50;;;;;;;2.11;88.89;101071.88;5031600;28;20180;-75
2022/03/09 01:57:19;;;;;;;41.87;21.17;;;;;;;2.07;90.63;101089.16;5030949;28;20184;-74
2022/03/09 01:59:47;;;;;;;39.07;20.63;;;;;;;2.04;91.38;101086.25;5031415;28;20190;-73
2022/03/09 02:02:13;;;;;;;39.77;20.20;;;;;;;1.99;91.35;101084.72;5030889;28;20223;-75
2022/03/09 02:04:38;;;;;;;40.43;20.27;;;;;;;1.91;92.13;101075.25;5029657;28;20180;-74
2022/03/09 02:07:07;;;;;;;41.23;21.23;;;;;;;1.89;92.39;101081.69;5031078;28;20172;-76
2022/03/09 02:09:42;;;;;;;42.90;21.13;;;;;;;1.76;91.92;101061.50;5030723;28;20734;-76
2022/03/09 02:12:14;;;;;;;40.70;19.60;;;;;;;1.82;92.22;101087.56;5030777;28;20554;-75
2022/03/09 02:14:49;;;;;;;43.70;20.37;;;;;;;1.78;92.15;101075.25;5030816;28;20337;-76
2022/03/09 02:17:19;;;;;;;44.63;21.87;;;;;;;1.72;92.20;101078.59;5031394;28;20601;-75
2022/03/09 02:19:48;;;;;;;43.93;21.33;;;;;;;1.61;92.49;101082.22;5031040;28;20721;-75
2022/03/09 02:22:20;;;;;;;44.40;22.53;;;;;;;1.52;93.10;101081.91;5031175;28;20200;-75
2022/03/09 02:24:50;;;;;;;45.90;21.77;;;;;;;1.42;93.80;101070.38;5030978;28;20234;-76
2022/03/09 02:27:16;;;;;;;43.57;21.37;;;;;;;1.25;94.37;101058.06;5031063;28;20726;-76
2022/03/09 02:29:42;;;;;;;44.40;24.43;;;;;;;1.41;94.64;101076.16;5031186;28;20291;-76
2022/03/09 02:32:10;;;;;;;48.17;22.47;;;;;;;1.39;95.49;101080.97;5031297;28;20618;-75
2022/03/09 02:34:36;;;;;;;44.30;24.00;;;;;;;1.49;95.56;101080.59;5030871;28;20675;-75
2022/03/09 02:37:01;;;;;;;44.90;23.60;;;;;;;1.53;94.81;101068.59;5031152;28;20175;-75
2022/03/09 02:39:28;;;;;;;44.50;21.07;;;;;;;1.70;93.85;101077.47;5030831;28;20182;-76
2022/03/09 02:41:54;;;;;;;34.60;20.53;;;;;;;1.76;93.03;101079.19;5030882;28;20532;-75
2022/03/09 02:44:19;;;;;;;43.93;23.20;;;;;;;1.82;92.48;101086.66;5030982;28;20262;-75
2022/03/09 02:46:45;;;;;;;37.47;19.90;;;;;;;1.85;91.61;101082.03;5031188;28;20229;-75
2022/03/09 02:49:10;;;;;;;45.50;22.67;;;;;;;1.83;90.38;101073.31;5031478;28;20180;-73
2022/03/09 02:51:36;;;;;;;45.07;22.40;;;;;;;1.69;90.24;101073.13;5031474;28;20560;-76
2022/03/09 02:54:02;;;;;;;44.07;21.77;;;;;;;1.65;90.49;101086.94;5031056;28;20179;-75
2022/03/09 02:56:28;;;;;;;39.77;21.17;;;;;;;1.66;92.03;101090.41;5030933;28;20184;-75
2022/03/09 02:58:53;;;;;;;42.60;22.10;;;;;;;1.68;92.52;101094.03;5030876;28;20191;-75
2022/03/09 03:01:19;;;;;;;43.97;22.77;;;;;;;1.74;92.01;101089.78;5030801;28;20639;-76
2022/03/09 03:03:45;;;;;;;44.60;21.27;;;;;;;1.72;90.96;101076.97;5030567;28;20675;-76
2022/03/09 03:06:12;;;;;;;42.37;22.00;;;;;;;1.71;89.81;101075.13;5030557;28;20184;-75
2022/03/09 03:08:38;;;;;;;42.07;23.13;;;;;;;1.73;89.81;101072.81;5030555;28;20176;-75
2022/03/09 03:11:08;;;;;;;44.30;23.13;;;;;;;1.75;90.15;101084.06;5030621;28;20179;-75
2022/03/09 03:13:34;;;;;;;45.50;22.33;;;;;;;1.78;90.05;101085.38;5030839;28;20210;-75
2022/03/09 03:16:00;;;;;;;40.47;21.80;;;;;;;1.86;89.83;101096.47;5030554;28;20672;-75
2022/03/09 03:18:25;;;;;;;39.83;21.60;;;;;;;1.82;89.05;101091.72;5033536;28;20258;-76
2022/03/09 03:20:54;;;;;;;43.77;21.07;;;;;;;1.82;89.73;101100.22;5034031;28;20626;-75
2022/03/09 03:23:24;;;;;;;43.10;21.57;;;;;;;1.85;90.20;101100.59;5034402;28;20195;-76
2022/03/09 03:25:50;;;;;;;37.20;20.20;;;;;;;1.85;89.39;101099.72;5033074;28;20662;-76
2022/03/09 03:28:16;;;;;;;42.67;21.70;;;;;;;1.67;89.09;101089.69;5034031;28;20176;-76
2022/03/09 03:30:43;;;;;;;47.77;22.30;;;;;;;1.65;89.44;101107.16;5033964;28;20266;-74
2022/03/09 03:33:08;;;;;;;49.13;22.03;;;;;;;1.71;89.93;101104.53;5033986;28;20206;-75
2022/03/09 03:35:34;;;;;;;45.53;21.57;;;;;;;1.76;90.05;101098.50;5033944;28;20219;-76
2022/03/09 03:37:59;;;;;;;43.03;23.43;;;;;;;1.75;89.49;101089.09;5033780;28;20675;-75
2022/03/09 03:40:25;;;;;;;44.90;23.10;;;;;;;1.83;89.51;101089.38;5033931;28;20179;-76
2022/03/09 03:42:50;;;;;;;45.70;22.63;;;;;;;1.90;88.91;101090.19;5033834;28;20228;-77
2022/03/09 03:45:16;;;;;;;48.10;23.80;;;;;;;1.92;88.26;101088.78;5034175;28;20168;-77
2022/03/09 03:47:43;;;;;;;48.70;24.20;;;;;;;1.95;88.39;101081.59;5033752;28;20168;-76
2022/03/09 03:50:09;;;;;;;48.50;25.13;;;;;;;1.89;87.68;101070.69;5033745;28;20171;-76
2022/03/09 03:52:35;;;;;;;47.77;23.30;;;;;;;2.02;87.83;101079.16;5033532;28;20175;-75
2022/03/09 03:55:00;;;;;;;47.20;25.20;;;;;;;1.85;88.09;101059.28;5033601;28;20172;-78
2022/03/09 03:57:26;;;;;;;42.77;23.87;;;;;;;1.84;89.54;101065.06;5033542;28;20207;-76
2022/03/09 03:59:51;;;;;;;55.33;27.20;;;;;;;1.59;89.24;101033.13;5033428;28;20207;-75
2022/03/09 04:02:17;;;;;;;51.20;25.70;;;;;;;1.87;89.15;101087.25;5033492;28;20200;-76
2022/03/09 04:04:42;;;;;;;53.70;27.80;;;;;;;1.87;89.65;101085.66;5033263;28;20617;-77
2022/03/09 04:07:08;;;;;;;48.50;25.20;;;;;;;1.87;89.98;101078.09;5033373;28;20222;-77
2022/03/09 04:09:33;;;;;;;54.50;25.77;;;;;;;1.93;89.52;101089.00;5033376;28;20172;-77
2022/03/09 04:11:59;;;;;;;50.13;27.07;;;;;;;1.71;89.76;101041.38;5033288;28;20176;-77
2022/03/09 04:14:24;;;;;;;52.53;25.97;;;;;;;1.91;87.70;101085.34;5033207;28;20244;-76
2022/03/09 04:16:50;;;;;;;51.13;25.70;;;;;;;1.80;88.39;101086.44;5033269;28;20616;-76
2022/03/09 04:19:15;;;;;;;50.13;26.30;;;;;;;1.81;87.88;101088.28;5033149;28;20176;-76
2022/03/09 04:21:41;;;;;;;48.23;25.57;;;;;;;1.94;88.14;101097.50;5033033;28;20207;-75
2022/03/09 04:24:06;;;;;;;51.17;27.13;;;;;;;1.91;87.80;101079.41;5033061;28;20183;-76
2022/03/09 04:26:32;;;;;;;51.07;26.87;;;;;;;1.93;87.01;101095.66;5033319;28;20674;-78
2022/03/09 04:28:59;;;;;;;82.33;39.90;;;;;;;1.97;87.94;101097.88;5031796;28;20204;-77
2022/03/09 04:31:25;;;;;;;58.60;29.80;;;;;;;1.94;87.66;101105.97;5033829;28;20172;-77
2022/03/09 04:33:50;;;;;;;66.67;33.50;;;;;;;1.94;88.11;101095.88;5034487;28;20320;-76
2022/03/09 04:36:16;;;;;;;63.17;30.27;;;;;;;1.90;87.54;101092.72;5035366;28;20214;-78
2022/03/09 04:38:43;;;;;;;75.93;38.63;;;;;;;1.93;86.92;101110.81;5035548;28;20211;-78
2022/03/09 04:41:08;;;;;;;70.80;34.97;;;;;;;1.87;87.17;101092.31;5036662;28;20282;-77
2022/03/09 04:43:34;;;;;;;62.97;30.17;;;;;;;1.86;87.42;101096.47;5039822;28;20754;-77
2022/03/09 04:45:59;;;;;;;63.83;29.73;;;;;;;1.89;87.24;101091.81;5041856;28;20172;-78
2022/03/09 04:48:25;;;;;;;63.23;30.00;;;;;;;1.84;87.91;101103.84;5051293;28;20175;-80
2022/03/09 04:50:50;;;;;;;60.50;29.63;;;;;;;1.82;88.15;101089.19;5052394;28;20183;-78
2022/03/09 04:53:16;;;;;;;54.70;28.13;;;;;;;1.73;87.72;101076.25;5055073;28;20176;-79
2022/03/09 04:55:41;;;;;;;66.80;30.23;;;;;;;1.74;87.68;101104.94;5051752;28;20172;-77
2022/03/09 04:58:06;;;;;;;71.77;36.23;;;;;;;1.61;88.07;101090.69;5050879;28;20176;-77
2022/03/09 05:00:32;;;;;;;60.93;27.90;;;;;;;1.61;88.91;101108.38;5048931;28;20195;-76
2022/03/09 05:02:58;;;;;;;56.43;28.90;;;;;;;1.52;89.71;101106.25;5047484;28;20660;-74
2022/03/09 05:05:23;;;;;;;61.40;29.83;;;;;;;1.53;90.38;101106.47;5046968;28;20195;-74
2022/03/09 05:07:49;;;;;;;59.07;27.90;;;;;;;1.44;90.14;101114.44;5041445;28;20183;-81
2022/03/09 05:10:14;;;;;;;62.03;29.33;;;;;;;1.50;91.39;101106.06;5050956;28;20187;-75
2022/03/09 05:12:40;;;;;;;59.67;29.80;;;;;;;1.48;90.62;101114.13;5048963;28;20176;-76
2022/03/09 05:15:06;;;;;;;65.60;31.00;;;;;;;1.40;90.63;101105.50;5041987;28;20272;-75
2022/03/09 05:17:32;;;;;;;72.03;36.60;;;;;;;1.46;90.55;101113.91;5032367;28;20172;-76
2022/03/09 05:19:58;;;;;;;75.13;36.07;;;;;;;1.32;90.53;101101.09;5032879;28;20239;-75
2022/03/09 05:22:24;;;;;;;62.90;29.80;;;;;;;1.26;90.96;101098.63;5033257;28;20210;-77
2022/03/09 05:24:50;;;;;;;66.03;31.20;;;;;;;1.34;91.06;101112.28;5036630;28;20207;-80
2022/03/09 05:27:16;;;;;;;66.20;31.87;;;;;;;1.34;90.99;101122.38;5032458;28;20706;-78
2022/03/09 05:29:41;;;;;;;67.60;31.57;;;;;;;1.33;91.26;101128.13;5032117;28;20196;-79
2022/03/09 05:32:07;;;;;;;64.00;31.83;;;;;;;1.30;91.82;101118.53;5032063;28;20168;-78
2022/03/09 05:34:33;;;;;;;64.47;31.10;;;;;;;1.48;92.24;101125.13;5032108;28;20176;-79
2022/03/09 05:36:58;;;;;;;63.10;29.30;;;;;;;1.54;91.70;101130.09;5031201;28;20286;-76
2022/03/09 05:39:24;;;;;;;70.67;34.50;;;;;;;1.44;91.71;101115.34;5031461;28;20190;-77
2022/03/09 05:41:49;;;;;;;67.53;34.30;;;;;;;1.59;90.60;101130.03;5031676;28;20199;-77
2022/03/09 05:44:16;;;;;;;67.50;31.50;;;;;;;1.67;90.10;101132.66;5031615;28;20699;-78
2022/03/09 05:46:43;;;;;;;69.47;32.50;;;;;;;1.72;90.48;101137.59;5031503;28;20175;-77
2022/03/09 05:49:08;;;;;;;68.50;33.13;;;;;;;1.85;90.90;101152.78;5031671;28;20576;-76
2022/03/09 05:51:34;;;;;;;60.10;30.93;;;;;;;1.94;90.10;101150.56;5031387;28;20662;-81
2022/03/09 05:53:59;;;;;;;76.77;34.83;;;;;;;2.07;89.94;101151.47;5031996;28;20179;-81
2022/03/09 05:56:26;;;;;;;74.60;34.40;;;;;;;2.22;88.68;101148.41;5032069;28;20172;-81
2022/03/09 05:58:54;;;;;;;63.90;31.40;;;;;;;2.23;87.38;101159.44;5031021;28;20223;-80
2022/03/09 06:01:21;;;;;;;68.63;32.17;;;;;;;2.35;87.22;101162.66;5031445;28;20207;-80
2022/03/09 06:03:46;;;;;;;62.03;29.37;;;;;;;2.38;86.14;101165.59;5031626;28;20176;-82
2022/03/09 06:06:12;;;;;;;64.67;30.20;;;;;;;2.35;84.94;101166.09;5031537;28;20329;-82
2022/03/09 06:08:40;;;;;;;67.10;30.70;;;;;;;2.28;85.09;101173.59;5031580;28;20172;-83
2022/03/09 06:11:06;;;;;;;68.63;31.13;;;;;;;2.29;84.38;101186.44;5031537;28;20718;-82
2022/03/09 06:13:34;;;;;;;62.80;29.47;;;;;;;2.05;84.90;101162.97;5031949;28;20184;-84
2022/03/09 06:16:00;;;;;;;55.77;28.33;;;;;;;2.15;84.68;101192.91;5031833;28;20266;-82
2022/03/09 06:18:26;;;;;;;61.93;28.77;;;;;;;2.03;84.98;101189.69;5031059;28;20609;-82
2022/03/09 06:20:51;;;;;;;60.73;28.93;;;;;;;1.84;84.44;101167.03;5031782;28;20200;-81
2022/03/09 06:23:18;;;;;;;59.63;30.17;;;;;;;1.84;84.84;101191.41;5031368;28;20172;-82
2022/03/09 06:25:43;;;;;;;59.57;29.23;;;;;;;1.92;85.19;101199.97;5031839;28;20222;-82
2022/03/09 06:28:09;;;;;;;60.97;29.13;;;;;;;1.91;85.54;101195.66;5031511;28;20186;-83
2022/03/09 06:30:34;;;;;;;63.47;29.97;;;;;;;1.80;85.21;101182.47;5032025;28;20176;-83
2022/03/09 06:33:00;;;;;;;67.43;31.97;;;;;;;1.87;85.95;101193.38;5032102;28;20199;-82
2022/03/09 06:35:27;;;;;;;73.03;31.40;;;;;;;1.82;86.62;101170.97;5033329;28;20482;-82
2022/03/09 06:37:52;;;;;;;70.10;31.37;;;;;;;1.93;87.22;101189.16;5035862;28;20229;-81
2022/03/09 06:40:18;;;;;;;70.50;33.77;;;;;;;1.85;86.81;101183.09;5036192;28;20184;-82
2022/03/09 06:42:44;;;;;;;70.67;31.50;;;;;;;1.92;85.67;101192.41;5036520;28;20250;-82
2022/03/09 06:45:09;;;;;;;73.77;33.47;;;;;;;1.91;86.55;101194.03;5035751;28;20618;-81
2022/03/09 06:47:38;;;;;;;70.83;33.60;;;;;;;1.83;87.58;101171.88;5033687;28;20260;-82
2022/03/09 06:50:07;;;;;;;76.93;36.70;;;;;;;1.95;87.08;101182.69;5031301;28;20200;-83
2022/03/09 06:52:33;;;;;;;77.03;33.93;;;;;;;1.97;86.98;101177.16;5033058;28;20180;-80
2022/03/09 06:55:02;;;;;;;72.77;33.83;;;;;;;2.07;86.58;101196.97;5035220;28;20179;-82
2022/03/09 06:57:29;;;;;;;74.27;33.70;;;;;;;2.14;85.99;101206.25;5034846;28;20184;-81
2022/03/09 06:59:56;;;;;;;76.97;37.13;;;;;;;2.08;86.25;101197.16;5035242;28;20172;-81
2022/03/09 07:02:22;;;;;;;74.03;34.17;;;;;;;2.13;85.04;101191.81;5033258;28;20211;-82
2022/03/09 07:04:49;;;;;;;72.80;32.67;;;;;;;2.07;84.40;101185.22;5034784;28;20183;-81
2022/03/09 07:07:14;;;;;;;68.20;33.50;;;;;;;1.98;84.50;101185.63;5035072;28;20168;-81
2022/03/09 07:09:40;;;;;;;62.83;30.63;;;;;;;1.99;84.60;101190.88;5034786;28;20180;-80
2022/03/09 07:12:06;;;;;;;62.80;31.80;;;;;;;1.89;83.94;101180.25;5034755;28;20208;-81
2022/03/09 07:14:31;;;;;;;69.70;32.77;;;;;;;1.97;83.82;101199.88;5034507;28;20186;-81
2022/03/09 07:16:57;;;;;;;64.10;30.47;;;;;;;1.88;85.03;101182.59;5034544;28;20179;-80
2022/03/09 07:19:22;;;;;;;73.20;33.50;;;;;;;2.07;84.88;101204.53;5034966;28;20214;-81
2022/03/09 07:21:48;;;;;;;76.17;35.30;;;;;;;2.16;84.86;101200.72;5034714;28;20711;-81
2022/03/09 07:24:14;;;;;;;74.27;35.30;;;;;;;2.26;84.84;101201.19;5034896;28;20172;-82
2022/03/09 07:26:41;;;;;;;75.83;34.80;;;;;;;2.37;84.52;101205.16;5034656;28;20237;-81
2022/03/09 07:29:08;;;;;;;74.93;34.97;;;;;;;2.31;83.61;101191.72;5033367;28;20227;-81
2022/03/09 07:31:34;;;;;;;80.37;35.73;;;;;;;2.39;82.98;101203.72;5034641;28;20183;-82
2022/03/09 07:33:59;;;;;;;73.73;34.20;;;;;;;2.39;81.70;101206.25;5034385;28;20632;-82
2022/03/09 07:36:25;;;;;;;74.60;32.37;;;;;;;2.35;81.60;101201.50;5034302;28;20191;-84
2022/03/09 07:38:51;;;;;;;69.93;33.10;;;;;;;2.39;81.05;101211.31;5034494;28;20195;-81
2022/03/09 07:41:16;;;;;;;72.93;33.70;;;;;;;2.33;81.64;101215.56;5034097;28;20690;-84
2022/03/09 07:43:42;;;;;;;74.87;34.67;;;;;;;2.34;81.65;101217.41;5034130;28;20224;-82
2022/03/09 07:46:09;;;;;;;73.60;33.83;;;;;;;2.39;81.71;101218.88;5034473;28;20187;-81
2022/03/09 07:48:34;;;;;;;69.70;32.27;;;;;;;2.39;82.24;101216.38;5034418;28;20182;-81
2022/03/09 07:51:00;;;;;;;66.80;30.13;;;;;;;2.43;81.93;101220.19;5034492;28;20267;-82
2022/03/09 07:53:26;;;;;;;71.80;33.57;;;;;;;2.45;80.81;101218.78;5034266;28;20180;-83
2022/03/09 07:55:51;;;;;;;69.57;33.40;;;;;;;2.48;81.73;101215.03;5034147;28;20241;-82
2022/03/09 07:58:17;;;;;;;72.10;34.20;;;;;;;2.49;81.01;101219.41;5033946;28;20214;-81
2022/03/09 08:00:42;;;;;;;89.63;45.63;;;;;;;2.49;81.36;101211.81;5034203;28;20207;-81
2022/03/09 08:03:08;;;;;;;78.47;34.93;;;;;;;2.45;80.88;101217.16;5034884;28;20195;-81
2022/03/09 08:05:34;;;;;;;65.30;32.17;;;;;;;2.29;81.29;101209.19;5033960;28;20266;-81
2022/03/09 08:07:59;;;;;;;57.97;29.70;;;;;;;2.42;82.35;101216.78;5033879;28;20631;-83
2022/03/09 08:10:25;;;;;;;71.90;33.43;;;;;;;2.21;82.12;101183.59;5033864;28;20260;-82
2022/03/09 08:12:50;;;;;;;66.97;31.90;;;;;;;2.39;82.44;101212.94;5033938;28;20230;-83
2022/03/09 08:15:16;;;;;;;67.63;32.27;;;;;;;2.43;82.06;101218.59;5033372;28;20582;-82
2022/03/09 08:17:42;;;;;;;74.60;33.77;;;;;;;2.46;81.78;101230.72;5033894;28;20172;-80
2022/03/09 08:20:08;;;;;;;63.83;30.47;;;;;;;2.43;81.60;101198.38;5033344;28;20200;-81
2022/03/09 08:22:33;;;;;;;66.20;31.00;;;;;;;2.57;81.49;101220.41;5033322;28;20730;-84
2022/03/09 08:24:59;;;;;;;72.60;33.53;;;;;;;2.57;80.77;101222.94;5033159;28;20313;-82
2022/03/09 08:27:25;;;;;;;72.83;33.23;;;;;;;2.63;81.00;101221.22;5033307;28;20250;-82
2022/03/09 08:29:51;;;;;;;77.30;33.97;;;;;;;2.68;81.01;101211.66;5033442;28;20687;-82
2022/03/09 08:32:20;;;;;;;72.87;32.87;;;;;;;2.67;80.40;101202.28;5033536;28;20573;-80
2022/03/09 08:34:46;;;;;;;77.97;37.07;;;;;;;2.83;80.06;101225.41;5034999;28;20179;-83
2022/03/09 08:37:12;;;;;;;89.70;41.40;;;;;;;2.86;80.51;101223.28;5038605;28;20214;-83
2022/03/09 08:39:38;;;;;;;87.87;41.50;;;;;;;2.87;80.25;101208.31;5041840;28;20667;-83
2022/03/09 08:42:04;;;;;;;112.40;50.03;;;;;;;2.88;79.84;101209.22;5046635;28;20298;-82
2022/03/09 08:44:30;;;;;;;83.47;38.20;;;;;;;3.01;79.39;101230.34;5038220;28;20279;-82
2022/03/09 08:46:55;;;;;;;75.73;34.00;;;;;;;3.04;78.70;101232.34;5032939;28;20175;-82
2022/03/09 08:49:21;;;;;;;69.13;32.10;;;;;;;3.03;78.69;101239.06;5033079;28;20172;-81
2022/03/09 08:51:46;;;;;;;75.33;34.57;;;;;;;3.07;78.57;101242.88;5033000;28;20186;-82
2022/03/09 08:54:12;;;;;;;72.07;34.70;;;;;;;3.06;78.66;101246.13;5033372;28;20180;-82
2022/03/09 08:56:39;;;;;;;75.13;36.07;;;;;;;3.05;79.15;101237.59;5033262;28;20785;-81
2022/03/09 08:59:04;;;;;;;93.83;37.40;;;;;;;3.04;79.44;101248.44;5041099;28;20318;-81
2022/03/09 09:01:31;;;;;;;91.77;38.80;;;;;;;3.08;79.05;101259.88;5039409;28;20227;-82
2022/03/09 09:03:57;;;;;;;89.03;39.07;;;;;;;3.08;78.92;101254.81;5034072;28;20200;-83
2022/03/09 09:06:22;;;;;;;85.20;36.10;;;;;;;3.06;78.65;101241.06;5033265;28;20230;-82
2022/03/09 09:08:48;;;;;;;78.00;32.57;;;;;;;3.05;78.25;101249.34;5033429;28;20176;-83
2022/03/09 09:11:13;;;;;;;76.33;32.20;;;;;;;3.09;79.06;101257.56;5034041;28;20556;-81
2022/03/09 09:13:39;;;;;;;68.33;28.30;;;;;;;3.01;78.70;101246.44;5033238;28;20184;-81
2022/03/09 09:16:05;;;;;;;56.60;27.03;;;;;;;3.08;77.81;101262.41;5032106;28;20179;-83
2022/03/09 09:18:30;;;;;;;46.00;21.07;;;;;;;3.08;77.36;101253.19;5032904;28;20235;-82
2022/03/09 09:20:56;;;;;;;40.00;18.63;;;;;;;3.13;76.41;101272.44;5032984;28;20576;-82
2022/03/09 09:23:22;;;;;;;27.43;13.33;;;;;;;3.13;74.72;101269.91;5033989;28;20180;-82
2022/03/09 09:25:48;;;;;;;21.30;10.67;;;;;;;3.14;73.98;101269.19;5031959;28;20256;-81
2022/03/09 09:28:15;;;;;;;14.53;8.00;;;;;;;3.10;73.98;101261.00;5033406;28;20172;-81
2022/03/09 09:30:41;;;;;;;15.20;8.57;;;;;;;3.03;73.88;101246.66;5033657;28;20176;-82
2022/03/09 09:33:06;;;;;;;17.83;9.87;;;;;;;3.16;74.24;101271.94;5034591;28;20334;-81
2022/03/09 09:35:32;;;;;;;12.50;7.73;;;;;;;3.19;74.44;101262.19;5034642;28;20205;-82
2022/03/09 09:38:06;;;;;;;15.13;8.00;;;;;;;3.08;75.39;101239.63;5043513;28;20247;-82
2022/03/09 09:40:35;;;;;;;13.00;7.57;;;;;;;3.17;77.16;101264.50;5050679;28;20635;-83
2022/03/09 09:43:07;;;;;;;12.57;7.77;;;;;;;3.16;76.05;101282.97;5047642;28;20271;-82
2022/03/09 09:45:34;;;;;;;6.87;4.77;;;;;;;3.10;74.41;101277.09;5042733;28;20194;-83
2022/03/09 09:48:01;;;;;;;11.30;5.43;;;;;;;2.91;72.63;101260.25;5038145;28;20163;-81
2022/03/09 09:50:26;;;;;;;7.17;4.50;;;;;;;2.94;71.92;101289.38;5032766;28;20172;-83
2022/03/09 09:52:52;;;;;;;9.43;4.60;;;;;;;2.90;73.08;101292.25;5032743;28;20662;-82
2022/03/09 09:55:18;;;;;;;9.77;5.47;;;;;;;2.72;72.77;101269.59;5032357;28;20191;-82
2022/03/09 09:57:47;;;;;;;15.43;6.43;;;;;;;2.71;73.35;101266.16;5032110;28;20175;-82
2022/03/09 10:00:13;;;;;;;8.23;4.30;;;;;;;2.73;72.90;101284.94;5030464;28;20659;-81
2022/03/09 10:02:42;;;;;;;7.80;3.63;;;;;;;2.71;72.77;101295.56;5032378;28;20271;-81
2022/03/09 10:05:12;;;;;;;7.77;4.03;;;;;;;2.74;72.49;101293.44;5032004;28;20184;-82
2022/03/09 10:08:05;;;;;;;13.63;6.13;;;;;;;2.75;73.31;101288.59;5032099;28;20186;-80
2022/03/09 10:10:52;;;;;;;7.70;4.30;;;;;;;2.83;73.26;101289.59;5031612;28;20722;-81
2022/03/09 10:13:24;;;;;;;5.23;4.03;;;;;;;2.94;73.58;101285.94;5032155;28;20227;-82
2022/03/09 10:16:08;;;;;;;6.00;3.90;;;;;;;3.11;73.97;101281.44;5031805;28;20184;-81
2022/03/09 10:18:34;;;;;;;7.07;4.00;;;;;;;3.24;73.55;101272.22;5031758;28;20250;-80
2022/03/09 10:21:35;;;;;;;6.60;4.13;;;;;;;3.41;74.49;101279.44;5030706;28;20211;-84
2022/03/09 10:24:04;;;;;;;5.33;4.17;;;;;;;3.57;74.36;101278.88;5031739;28;20163;-81
2022/03/09 10:26:45;;;;;;;8.20;3.67;;;;;;;3.65;72.88;101285.84;5035570;28;20207;-80
2022/03/09 10:29:14;;;;;;;6.30;3.67;;;;;;;3.66;72.25;101290.19;5038655;28;20210;-82
2022/03/09 10:31:48;;;;;;;7.60;3.80;;;;;;;3.60;71.59;101282.69;5037009;28;20687;-81
2022/03/09 10:34:23;;;;;;;9.50;6.13;;;;;;;3.62;71.39;101283.81;5036348;28;20172;-81
2022/03/09 10:36:57;;;;;;;7.17;4.43;;;;;;;3.62;72.38;101287.97;5035834;28;20164;-81
2022/03/09 10:39:26;;;;;;;5.97;4.07;;;;;;;3.54;72.34;101289.50;5035633;28;20206;-80
2022/03/09 10:42:26;;;;;;;5.17;3.70;;;;;;;3.43;70.73;101279.66;5042976;28;20264;-82
2022/03/09 10:44:55;;;;;;;5.83;3.77;;;;;;;3.28;70.67;101273.50;5059965;28;20250;-82
2022/03/09 10:47:41;;;;;;;5.67;3.77;;;;;;;3.37;71.00;101291.53;5057665;28;20187;-82
2022/03/09 10:50:25;;;;;;;6.27;4.47;;;;;;;3.22;70.32;101252.47;5048124;28;20183;-81
2022/03/09 10:52:52;;;;;;;9.97;4.30;;;;;;;3.41;69.30;101291.19;5035668;28;20222;-81
2022/03/09 10:55:27;;;;;;;5.07;3.57;;;;;;;3.41;68.66;101283.59;5036079;28;20212;-81
2022/03/09 10:58:07;;;;;;;6.20;4.07;;;;;;;3.35;68.54;101286.25;5035876;28;20167;-81
2022/03/09 11:00:54;;;;;;;6.03;3.93;;;;;;;3.33;69.12;101284.22;5035710;28;20534;-81
2022/03/09 11:03:21;;;;;;;4.63;3.53;;;;;;;3.36;68.47;101288.06;5036057;28;20180;-82
2022/03/09 11:06:07;;;;;;;5.20;3.50;;;;;;;3.40;68.51;101287.75;5036014;28;20176;-82
2022/03/09 11:08:34;;;;;;;6.13;3.43;;;;;;;3.39;68.91;101287.53;5034786;28;20164;-81
2022/03/09 11:11:00;;;;;;;5.03;3.80;;;;;;;3.37;68.93;101294.06;5035354;28;20306;-82
2022/03/09 11:13:28;;;;;;;11.13;4.50;;;;;;;3.28;69.02;101276.03;5034955;28;20675;-82
2022/03/09 11:15:54;;;;;;;6.53;4.40;;;;;;;3.33;69.92;101299.41;5034909;28;20168;-81
2022/03/09 11:18:22;;;;;;;6.90;4.50;;;;;;;3.22;69.65;101290.44;5034883;28;20168;-82